Current | Forecast
Updated: 11:30 AM +07 on April 30, 2017
Observed at Abakan, Russia
Temperature 54°F
Humidity 54%
Dew Point 37°F
Wind SSW at 20 mph
Pressure 29.95 in (Steady)
Conditions Clear
Visibility -
UV N/A
Clouds
Yesterday's Maximum 66°F
Yesterday's Minimum 48°F approx.
Yesterday's Heating Degree Days 8 approx.
Sunrise5:20 AM +07
Sunset8:23 PM +07
Moon Rise8:28 AM +07
Moon Set
Moon PhaseMoon Phase
Waxing Crescent
Raw METARMETAR UNAA 300430Z 21009MPS CAVOK 12/03 Q1014 R20/090065 NOSIG RMK QFE738


Monday
. High: 51° F.
Tuesday
. High: 51° F.
Wednesday
. High: 50° F.
Thursday
. High: 50° F.
Friday
. High: 53° F.
Saturday
. High: 59° F.
Sunday
. High: 64° F.
Monday
. High: 69° F.

Units: English | Metric

Find the Weather for any City, State or Zipcode, or Country:

U.S. State List | Severe Weather | Tropical Storms | Ski Conditions
United States | Canada | Central America | South America | Asia | Europe | Australia | Africa | Islands

Weather Underground

© Copyright 2017
The Weather Company, LLC